Accueil
METAR-TAF:

METAR-TAF

Aéroports :

Aéroport international de Nouméa - La Tontouta

Nouméa / La Tontouta, Nouvelle-Calédonie

latitude: 22-01S, longitude: 166-13E, altitude: 16 m

Observation

Le bulletin a été fait il y a 23 minutes, à 13:00 UTC
Vent 2 kt de direction variable
Température 24°C
Humidité 74%
Pression 1016 hPa
Visibilité 10 km ou plus
Nuages fragmentés à une hauteur de 4200 ft
Nuages fragmentés à une hauteur de 4800 ft

METAR: NWWW 251300Z AUTO VRB02KT 9999 BKN042 BKN048 24/19 Q1016 NOSIG

Heure: 00:23 (13:23 UTC)

Prévision

Le bulletin a été fait il y a 2 heures et 23 minutes, à 11:00 UTC
Prévision valable du 25 à 12 UTC au 26 à 12 UTC
Vent 2 kt de direction variable
Visibilité 10 km ou plus
Nuages épars à une hauteur de 2000 ft
Probabilité 30% :
Temporairement
du 25 à 15 UTC au 25 à 20 UTC
Visibilité: 0900 m
Brouillard mince

TAF: NWWW 251100Z 2512/2612 VRB02KT 9999 SCT020 PROB30 TEMPO 2515/2520 0900 MIFG

Observations et prévisions météorologiques de plus de 4000 aéroports (messages METAR et TAF).

Les stations disponibles sont représentées par des disques jaunes et rouges sur la carte.

Passer la souris dessus pour voir le nom de la station.

Cliquer dessus pour voir les observations et prévisions météorologiques.

Pour changer de carte: cliquez sur les boutons verts avec une croix noire pour zoomer, sur le bouton vert avec un tiret pour effectuer un zoom arrière, ou sur les flèches vertes pour les cartes adjacentes.


METAR-TAF: